sensor_id;sensor_type;location;lat;lon;timestamp;P1;durP1;ratioP1;P2;durP2;ratioP2
9918;SDS011;4998;51.024;13.828;2022-08-19T00:01:45;7.40;;;6.70;;
9918;SDS011;4998;51.024;13.828;2022-08-19T00:04:13;9.73;;;7.90;;
9918;SDS011;4998;51.024;13.828;2022-08-19T00:06:42;7.73;;;7.13;;
9918;SDS011;4998;51.024;13.828;2022-08-19T00:09:12;8.17;;;7.47;;
9918;SDS011;4998;51.024;13.828;2022-08-19T00:11:41;8.30;;;7.60;;
9918;SDS011;4998;51.024;13.828;2022-08-19T00:14:10;8.50;;;7.70;;
9918;SDS011;4998;51.024;13.828;2022-08-19T00:16:39;8.27;;;7.57;;
9918;SDS011;4998;51.024;13.828;2022-08-19T00:19:08;8.27;;;7.53;;
9918;SDS011;4998;51.024;13.828;2022-08-19T00:21:35;9.00;;;8.20;;
9918;SDS011;4998;51.024;13.828;2022-08-19T00:24:04;8.30;;;7.60;;
9918;SDS011;4998;51.024;13.828;2022-08-19T00:26:34;9.50;;;8.57;;
9918;SDS011;4998;51.024;13.828;2022-08-19T00:29:02;9.00;;;8.10;;
9918;SDS011;4998;51.024;13.828;2022-08-19T00:31:29;8.87;;;8.00;;
9918;SDS011;4998;51.024;13.828;2022-08-19T00:33:56;9.33;;;8.43;;
9918;SDS011;4998;51.024;13.828;2022-08-19T00:36:24;10.57;;;9.57;;
9918;SDS011;4998;51.024;13.828;2022-08-19T00:38:51;9.27;;;8.43;;
9918;SDS011;4998;51.024;13.828;2022-08-19T00:41:18;9.93;;;9.03;;
9918;SDS011;4998;51.024;13.828;2022-08-19T00:43:58;9.80;;;8.90;;
9918;SDS011;4998;51.024;13.828;2022-08-19T00:46:26;9.70;;;8.70;;
9918;SDS011;4998;51.024;13.828;2022-08-19T00:48:53;9.87;;;8.87;;
9918;SDS011;4998;51.024;13.828;2022-08-19T00:51:21;9.60;;;8.60;;
9918;SDS011;4998;51.024;13.828;2022-08-19T00:53:51;9.77;;;8.80;;
9918;SDS011;4998;51.024;13.828;2022-08-19T00:56:20;9.90;;;9.00;;
9918;SDS011;4998;51.024;13.828;2022-08-19T00:58:47;10.40;;;9.00;;
9918;SDS011;4998;51.024;13.828;2022-08-19T01:01:15;10.40;;;9.40;;
9918;SDS011;4998;51.024;13.828;2022-08-19T01:03:42;9.50;;;8.60;;
9918;SDS011;4998;51.024;13.828;2022-08-19T01:06:09;8.77;;;7.97;;
9918;SDS011;4998;51.024;13.828;2022-08-19T01:08:36;9.33;;;8.53;;
9918;SDS011;4998;51.024;13.828;2022-08-19T01:11:03;9.80;;;8.90;;
9918;SDS011;4998;51.024;13.828;2022-08-19T01:13:32;12.40;;;9.60;;
9918;SDS011;4998;51.024;13.828;2022-08-19T01:16:00;9.40;;;8.50;;
9918;SDS011;4998;51.024;13.828;2022-08-19T01:18:32;9.67;;;8.73;;
9918;SDS011;4998;51.024;13.828;2022-08-19T01:21:04;10.33;;;9.43;;
9918;SDS011;4998;51.024;13.828;2022-08-19T01:23:36;10.03;;;9.10;;
9918;SDS011;4998;51.024;13.828;2022-08-19T01:26:10;10.30;;;9.33;;
9918;SDS011;4998;51.024;13.828;2022-08-19T01:28:39;9.60;;;8.70;;
9918;SDS011;4998;51.024;13.828;2022-08-19T01:31:08;9.90;;;8.90;;
9918;SDS011;4998;51.024;13.828;2022-08-19T01:33:37;11.90;;;9.93;;
9918;SDS011;4998;51.024;13.828;2022-08-19T01:36:05;9.53;;;8.57;;
9918;SDS011;4998;51.024;13.828;2022-08-19T01:38:35;10.43;;;9.43;;
9918;SDS011;4998;51.024;13.828;2022-08-19T01:41:05;12.80;;;9.53;;
9918;SDS011;4998;51.024;13.828;2022-08-19T01:43:32;10.97;;;9.73;;
9918;SDS011;4998;51.024;13.828;2022-08-19T01:45:59;10.97;;;9.90;;
9918;SDS011;4998;51.024;13.828;2022-08-19T01:48:26;10.93;;;9.90;;
9918;SDS011;4998;51.024;13.828;2022-08-19T01:50:55;10.10;;;9.10;;
9918;SDS011;4998;51.024;13.828;2022-08-19T01:53:22;12.20;;;10.63;;
9918;SDS011;4998;51.024;13.828;2022-08-19T01:55:50;10.00;;;9.00;;
9918;SDS011;4998;51.024;13.828;2022-08-19T01:58:18;9.87;;;8.87;;
9918;SDS011;4998;51.024;13.828;2022-08-19T02:00:47;9.90;;;8.90;;
9918;SDS011;4998;51.024;13.828;2022-08-19T02:03:14;10.60;;;9.60;;
9918;SDS011;4998;51.024;13.828;2022-08-19T02:05:41;9.77;;;8.90;;
9918;SDS011;4998;51.024;13.828;2022-08-19T02:08:09;10.93;;;9.73;;
9918;SDS011;4998;51.024;13.828;2022-08-19T02:10:38;11.10;;;10.10;;
9918;SDS011;4998;51.024;13.828;2022-08-19T02:13:07;11.07;;;9.77;;
9918;SDS011;4998;51.024;13.828;2022-08-19T02:15:34;10.97;;;9.87;;
9918;SDS011;4998;51.024;13.828;2022-08-19T02:18:02;10.07;;;9.17;;
9918;SDS011;4998;51.024;13.828;2022-08-19T02:20:30;9.90;;;8.93;;
9918;SDS011;4998;51.024;13.828;2022-08-19T02:22:57;10.57;;;9.57;;
9918;SDS011;4998;51.024;13.828;2022-08-19T02:25:24;10.70;;;9.70;;
9918;SDS011;4998;51.024;13.828;2022-08-19T02:27:50;10.20;;;9.20;;
9918;SDS011;4998;51.024;13.828;2022-08-19T02:30:20;10.33;;;9.33;;
9918;SDS011;4998;51.024;13.828;2022-08-19T02:32:47;11.33;;;10.17;;
9918;SDS011;4998;51.024;13.828;2022-08-19T02:35:14;11.57;;;10.57;;
9918;SDS011;4998;51.024;13.828;2022-08-19T02:37:42;11.83;;;10.20;;
9918;SDS011;4998;51.024;13.828;2022-08-19T02:40:27;10.57;;;9.57;;
9918;SDS011;4998;51.024;13.828;2022-08-19T02:42:54;11.67;;;9.90;;
9918;SDS011;4998;51.024;13.828;2022-08-19T02:45:23;11.27;;;10.17;;
9918;SDS011;4998;51.024;13.828;2022-08-19T02:47:50;11.37;;;10.27;;
9918;SDS011;4998;51.024;13.828;2022-08-19T02:50:17;10.70;;;9.40;;
9918;SDS011;4998;51.024;13.828;2022-08-19T02:52:44;12.30;;;9.83;;
9918;SDS011;4998;51.024;13.828;2022-08-19T02:55:11;10.33;;;9.30;;
9918;SDS011;4998;51.024;13.828;2022-08-19T02:57:38;9.90;;;9.00;;
9918;SDS011;4998;51.024;13.828;2022-08-19T03:00:06;11.07;;;9.97;;
9918;SDS011;4998;51.024;13.828;2022-08-19T03:02:38;10.37;;;9.47;;
9918;SDS011;4998;51.024;13.828;2022-08-19T03:05:05;11.07;;;9.97;;
9918;SDS011;4998;51.024;13.828;2022-08-19T03:07:33;10.57;;;9.57;;
9918;SDS011;4998;51.024;13.828;2022-08-19T03:10:00;10.40;;;9.40;;
9918;SDS011;4998;51.024;13.828;2022-08-19T03:12:27;11.50;;;10.37;;
9918;SDS011;4998;51.024;13.828;2022-08-19T03:14:54;10.07;;;9.10;;
9918;SDS011;4998;51.024;13.828;2022-08-19T03:17:21;11.33;;;9.70;;
9918;SDS011;4998;51.024;13.828;2022-08-19T03:19:49;12.07;;;10.03;;
9918;SDS011;4998;51.024;13.828;2022-08-19T03:22:16;10.57;;;9.60;;
9918;SDS011;4998;51.024;13.828;2022-08-19T03:24:43;10.93;;;9.87;;
9918;SDS011;4998;51.024;13.828;2022-08-19T03:27:10;10.23;;;9.03;;
9918;SDS011;4998;51.024;13.828;2022-08-19T03:29:37;10.20;;;9.00;;
9918;SDS011;4998;51.024;13.828;2022-08-19T03:32:05;14.57;;;10.50;;
9918;SDS011;4998;51.024;13.828;2022-08-19T03:34:33;12.13;;;10.13;;
9918;SDS011;4998;51.024;13.828;2022-08-19T03:37:05;13.57;;;12.27;;
9918;SDS011;4998;51.024;13.828;2022-08-19T03:39:34;13.10;;;11.63;;
9918;SDS011;4998;51.024;13.828;2022-08-19T03:42:02;13.83;;;10.13;;
9918;SDS011;4998;51.024;13.828;2022-08-19T03:44:30;12.10;;;10.27;;
9918;SDS011;4998;51.024;13.828;2022-08-19T03:46:58;12.17;;;10.80;;
9918;SDS011;4998;51.024;13.828;2022-08-19T03:49:26;11.97;;;10.80;;
9918;SDS011;4998;51.024;13.828;2022-08-19T03:51:55;11.67;;;10.40;;
9918;SDS011;4998;51.024;13.828;2022-08-19T03:54:26;12.07;;;10.60;;
9918;SDS011;4998;51.024;13.828;2022-08-19T03:56:55;12.70;;;11.20;;
9918;SDS011;4998;51.024;13.828;2022-08-19T03:59:24;11.63;;;10.53;;
9918;SDS011;4998;51.024;13.828;2022-08-19T04:01:52;12.27;;;10.63;;
9918;SDS011;4998;51.024;13.828;2022-08-19T04:04:20;11.70;;;10.40;;
9918;SDS011;4998;51.024;13.828;2022-08-19T04:06:47;11.40;;;10.27;;
9918;SDS011;4998;51.024;13.828;2022-08-19T04:09:15;11.63;;;10.53;;
9918;SDS011;4998;51.024;13.828;2022-08-19T04:11:45;12.60;;;11.23;;
9918;SDS011;4998;51.024;13.828;2022-08-19T04:14:15;15.53;;;10.10;;
9918;SDS011;4998;51.024;13.828;2022-08-19T04:16:44;13.90;;;12.17;;
9918;SDS011;4998;51.024;13.828;2022-08-19T04:19:12;11.70;;;10.60;;
9918;SDS011;4998;51.024;13.828;2022-08-19T04:21:40;11.30;;;10.13;;
9918;SDS011;4998;51.024;13.828;2022-08-19T04:24:09;13.77;;;10.37;;
9918;SDS011;4998;51.024;13.828;2022-08-19T04:26:36;12.87;;;10.83;;
9918;SDS011;4998;51.024;13.828;2022-08-19T04:29:06;12.17;;;10.97;;
9918;SDS011;4998;51.024;13.828;2022-08-19T04:31:35;11.80;;;10.60;;
9918;SDS011;4998;51.024;13.828;2022-08-19T04:34:03;11.93;;;10.73;;
9918;SDS011;4998;51.024;13.828;2022-08-19T04:36:33;12.10;;;10.90;;
9918;SDS011;4998;51.024;13.828;2022-08-19T04:39:02;11.97;;;10.77;;
9918;SDS011;4998;51.024;13.828;2022-08-19T04:41:32;14.40;;;12.23;;
9918;SDS011;4998;51.024;13.828;2022-08-19T04:44:18;13.43;;;12.13;;
9918;SDS011;4998;51.024;13.828;2022-08-19T04:46:46;15.03;;;13.03;;
9918;SDS011;4998;51.024;13.828;2022-08-19T04:49:14;12.93;;;11.53;;
9918;SDS011;4998;51.024;13.828;2022-08-19T04:51:43;15.47;;;11.83;;
9918;SDS011;4998;51.024;13.828;2022-08-19T04:54:12;12.67;;;11.47;;
9918;SDS011;4998;51.024;13.828;2022-08-19T04:56:40;12.80;;;11.60;;
9918;SDS011;4998;51.024;13.828;2022-08-19T04:59:07;12.20;;;11.10;;
9918;SDS011;4998;51.024;13.828;2022-08-19T05:01:35;12.60;;;11.37;;
9918;SDS011;4998;51.024;13.828;2022-08-19T05:04:04;13.30;;;12.10;;
9918;SDS011;4998;51.024;13.828;2022-08-19T05:06:33;13.43;;;12.07;;
9918;SDS011;4998;51.024;13.828;2022-08-19T05:09:00;14.00;;;11.40;;
9918;SDS011;4998;51.024;13.828;2022-08-19T05:11:29;12.40;;;11.10;;
9918;SDS011;4998;51.024;13.828;2022-08-19T05:13:57;13.33;;;12.07;;
9918;SDS011;4998;51.024;13.828;2022-08-19T05:16:25;13.17;;;11.83;;
9918;SDS011;4998;51.024;13.828;2022-08-19T05:18:55;15.37;;;11.83;;
9918;SDS011;4998;51.024;13.828;2022-08-19T05:21:40;12.40;;;11.10;;
9918;SDS011;4998;51.024;13.828;2022-08-19T05:24:26;13.30;;;11.60;;
9918;SDS011;4998;51.024;13.828;2022-08-19T05:26:54;13.40;;;11.93;;
9918;SDS011;4998;51.024;13.828;2022-08-19T05:29:23;13.40;;;11.13;;
9918;SDS011;4998;51.024;13.828;2022-08-19T05:31:52;12.57;;;11.37;;
9918;SDS011;4998;51.024;13.828;2022-08-19T05:34:22;12.33;;;11.10;;
9918;SDS011;4998;51.024;13.828;2022-08-19T05:36:51;14.20;;;12.17;;
9918;SDS011;4998;51.024;13.828;2022-08-19T05:39:21;12.47;;;11.20;;
9918;SDS011;4998;51.024;13.828;2022-08-19T05:41:50;14.57;;;13.07;;
9918;SDS011;4998;51.024;13.828;2022-08-19T05:44:19;13.67;;;12.37;;
9918;SDS011;4998;51.024;13.828;2022-08-19T05:46:47;13.30;;;12.00;;
9918;SDS011;4998;51.024;13.828;2022-08-19T05:49:18;14.70;;;13.07;;
9918;SDS011;4998;51.024;13.828;2022-08-19T05:51:48;13.20;;;11.80;;
9918;SDS011;4998;51.024;13.828;2022-08-19T05:54:16;15.93;;;14.20;;
9918;SDS011;4998;51.024;13.828;2022-08-19T05:56:43;16.70;;;13.30;;
9918;SDS011;4998;51.024;13.828;2022-08-19T05:59:12;14.27;;;12.77;;
9918;SDS011;4998;51.024;13.828;2022-08-19T06:01:42;13.67;;;12.30;;
9918;SDS011;4998;51.024;13.828;2022-08-19T06:04:10;12.77;;;11.50;;
9918;SDS011;4998;51.024;13.828;2022-08-19T06:06:38;15.60;;;13.33;;
9918;SDS011;4998;51.024;13.828;2022-08-19T06:09:07;14.63;;;13.13;;
9918;SDS011;4998;51.024;13.828;2022-08-19T06:11:36;15.03;;;11.60;;
9918;SDS011;4998;51.024;13.828;2022-08-19T06:14:06;15.43;;;12.50;;
9918;SDS011;4998;51.024;13.828;2022-08-19T06:16:35;13.93;;;12.30;;
9918;SDS011;4998;51.024;13.828;2022-08-19T06:19:05;13.27;;;11.90;;
9918;SDS011;4998;51.024;13.828;2022-08-19T06:21:35;13.70;;;12.30;;
9918;SDS011;4998;51.024;13.828;2022-08-19T06:24:03;12.90;;;11.70;;
9918;SDS011;4998;51.024;13.828;2022-08-19T06:26:33;15.40;;;10.40;;
9918;SDS011;4998;51.024;13.828;2022-08-19T06:29:01;16.50;;;10.87;;
9918;SDS011;4998;51.024;13.828;2022-08-19T06:31:29;11.00;;;9.83;;
9918;SDS011;4998;51.024;13.828;2022-08-19T06:33:58;10.63;;;9.50;;
9918;SDS011;4998;51.024;13.828;2022-08-19T06:36:28;11.83;;;9.43;;
9918;SDS011;4998;51.024;13.828;2022-08-19T06:38:59;10.03;;;8.70;;
9918;SDS011;4998;51.024;13.828;2022-08-19T06:41:26;10.50;;;8.60;;
9918;SDS011;4998;51.024;13.828;2022-08-19T06:43:55;10.10;;;8.77;;
9918;SDS011;4998;51.024;13.828;2022-08-19T06:46:23;9.60;;;8.60;;
9918;SDS011;4998;51.024;13.828;2022-08-19T06:48:49;16.63;;;8.90;;
9918;SDS011;4998;51.024;13.828;2022-08-19T06:51:18;8.37;;;7.60;;
9918;SDS011;4998;51.024;13.828;2022-08-19T06:53:46;8.70;;;7.80;;
9918;SDS011;4998;51.024;13.828;2022-08-19T06:56:14;9.27;;;7.97;;
9918;SDS011;4998;51.024;13.828;2022-08-19T06:58:42;8.40;;;7.60;;
9918;SDS011;4998;51.024;13.828;2022-08-19T07:01:10;8.60;;;7.80;;
9918;SDS011;4998;51.024;13.828;2022-08-19T07:03:37;10.10;;;8.10;;
9918;SDS011;4998;51.024;13.828;2022-08-19T07:06:05;8.70;;;7.80;;
9918;SDS011;4998;51.024;13.828;2022-08-19T07:08:34;8.80;;;8.10;;
9918;SDS011;4998;51.024;13.828;2022-08-19T07:11:02;8.03;;;7.33;;
9918;SDS011;4998;51.024;13.828;2022-08-19T07:13:32;8.20;;;7.40;;
9918;SDS011;4998;51.024;13.828;2022-08-19T07:16:02;10.60;;;8.00;;
9918;SDS011;4998;51.024;13.828;2022-08-19T07:18:31;9.17;;;7.50;;
9918;SDS011;4998;51.024;13.828;2022-08-19T07:21:02;8.73;;;7.83;;
9918;SDS011;4998;51.024;13.828;2022-08-19T07:23:30;9.17;;;7.70;;
9918;SDS011;4998;51.024;13.828;2022-08-19T07:25:57;8.33;;;7.60;;
9918;SDS011;4998;51.024;13.828;2022-08-19T07:28:29;8.90;;;8.10;;
9918;SDS011;4998;51.024;13.828;2022-08-19T07:30:57;8.63;;;7.83;;
9918;SDS011;4998;51.024;13.828;2022-08-19T07:33:26;9.33;;;8.47;;
9918;SDS011;4998;51.024;13.828;2022-08-19T07:35:56;10.07;;;8.80;;
9918;SDS011;4998;51.024;13.828;2022-08-19T07:38:23;9.43;;;8.50;;
9918;SDS011;4998;51.024;13.828;2022-08-19T07:40:50;10.00;;;9.10;;
9918;SDS011;4998;51.024;13.828;2022-08-19T07:43:17;9.47;;;8.60;;
9918;SDS011;4998;51.024;13.828;2022-08-19T07:45:50;9.53;;;8.53;;
9918;SDS011;4998;51.024;13.828;2022-08-19T07:48:18;9.70;;;8.70;;
9918;SDS011;4998;51.024;13.828;2022-08-19T07:50:48;10.00;;;9.00;;
9918;SDS011;4998;51.024;13.828;2022-08-19T07:53:16;10.50;;;9.60;;
9918;SDS011;4998;51.024;13.828;2022-08-19T07:55:43;10.40;;;9.30;;
9918;SDS011;4998;51.024;13.828;2022-08-19T07:58:11;10.47;;;8.90;;
9918;SDS011;4998;51.024;13.828;2022-08-19T08:00:39;10.10;;;9.10;;
9918;SDS011;4998;51.024;13.828;2022-08-19T08:03:06;12.00;;;8.83;;
9918;SDS011;4998;51.024;13.828;2022-08-19T08:05:33;9.73;;;8.73;;
9918;SDS011;4998;51.024;13.828;2022-08-19T08:08:19;13.27;;;9.40;;
9918;SDS011;4998;51.024;13.828;2022-08-19T08:11:04;10.43;;;9.23;;
9918;SDS011;4998;51.024;13.828;2022-08-19T08:13:31;11.90;;;9.63;;
9918;SDS011;4998;51.024;13.828;2022-08-19T08:16:00;9.73;;;8.80;;
9918;SDS011;4998;51.024;13.828;2022-08-19T08:18:28;11.40;;;9.63;;
9918;SDS011;4998;51.024;13.828;2022-08-19T08:20:55;12.80;;;10.33;;
9918;SDS011;4998;51.024;13.828;2022-08-19T08:23:24;10.83;;;9.73;;
9918;SDS011;4998;51.024;13.828;2022-08-19T08:25:52;10.03;;;9.03;;
9918;SDS011;4998;51.024;13.828;2022-08-19T08:28:20;10.40;;;9.33;;
9918;SDS011;4998;51.024;13.828;2022-08-19T08:30:48;11.30;;;10.20;;
9918;SDS011;4998;51.024;13.828;2022-08-19T08:33:16;10.70;;;9.60;;
9918;SDS011;4998;51.024;13.828;2022-08-19T08:35:44;10.13;;;9.13;;
9918;SDS011;4998;51.024;13.828;2022-08-19T08:38:11;11.80;;;9.77;;
9918;SDS011;4998;51.024;13.828;2022-08-19T08:40:42;10.60;;;9.50;;
9918;SDS011;4998;51.024;13.828;2022-08-19T08:43:19;10.17;;;9.00;;
9918;SDS011;4998;51.024;13.828;2022-08-19T08:45:52;9.37;;;8.50;;
9918;SDS011;4998;51.024;13.828;2022-08-19T08:48:27;9.63;;;8.03;;
9918;SDS011;4998;51.024;13.828;2022-08-19T08:51:03;9.23;;;8.40;;
9918;SDS011;4998;51.024;13.828;2022-08-19T08:53:33;9.10;;;8.20;;
9918;SDS011;4998;51.024;13.828;2022-08-19T08:56:03;9.17;;;8.23;;
9918;SDS011;4998;51.024;13.828;2022-08-19T08:58:41;10.00;;;8.53;;
9918;SDS011;4998;51.024;13.828;2022-08-19T09:01:15;10.00;;;9.00;;
9918;SDS011;4998;51.024;13.828;2022-08-19T09:03:42;8.53;;;7.80;;
9918;SDS011;4998;51.024;13.828;2022-08-19T09:06:12;9.10;;;8.30;;
9918;SDS011;4998;51.024;13.828;2022-08-19T09:08:48;9.30;;;8.30;;
9918;SDS011;4998;51.024;13.828;2022-08-19T09:11:23;9.20;;;8.17;;
9918;SDS011;4998;51.024;13.828;2022-08-19T09:14:07;8.77;;;7.97;;
9918;SDS011;4998;51.024;13.828;2022-08-19T09:16:41;8.57;;;7.67;;
9918;SDS011;4998;51.024;13.828;2022-08-19T09:19:09;9.40;;;8.50;;
9918;SDS011;4998;51.024;13.828;2022-08-19T09:21:36;8.20;;;7.50;;
9918;SDS011;4998;51.024;13.828;2022-08-19T09:24:03;9.70;;;8.80;;
9918;SDS011;4998;51.024;13.828;2022-08-19T09:26:32;8.70;;;7.90;;
9918;SDS011;4998;51.024;13.828;2022-08-19T09:29:00;8.40;;;7.70;;
9918;SDS011;4998;51.024;13.828;2022-08-19T09:31:30;8.43;;;7.63;;
9918;SDS011;4998;51.024;13.828;2022-08-19T09:33:57;9.00;;;8.20;;
9918;SDS011;4998;51.024;13.828;2022-08-19T09:36:26;9.53;;;8.63;;
9918;SDS011;4998;51.024;13.828;2022-08-19T09:38:57;9.47;;;8.57;;
9918;SDS011;4998;51.024;13.828;2022-08-19T09:41:25;9.50;;;8.70;;
9918;SDS011;4998;51.024;13.828;2022-08-19T09:43:57;9.23;;;8.33;;
9918;SDS011;4998;51.024;13.828;2022-08-19T09:46:25;9.67;;;8.77;;
9918;SDS011;4998;51.024;13.828;2022-08-19T09:48:56;9.33;;;8.53;;
9918;SDS011;4998;51.024;13.828;2022-08-19T09:51:25;9.83;;;8.83;;
9918;SDS011;4998;51.024;13.828;2022-08-19T09:53:54;10.20;;;9.27;;
9918;SDS011;4998;51.024;13.828;2022-08-19T09:56:25;9.33;;;8.43;;
9918;SDS011;4998;51.024;13.828;2022-08-19T09:58:51;10.00;;;8.60;;
9918;SDS011;4998;51.024;13.828;2022-08-19T10:01:21;9.10;;;8.30;;
9918;SDS011;4998;51.024;13.828;2022-08-19T10:03:51;9.53;;;8.63;;
9918;SDS011;4998;51.024;13.828;2022-08-19T10:06:20;9.70;;;8.80;;
9918;SDS011;4998;51.024;13.828;2022-08-19T10:08:48;9.80;;;8.90;;
9918;SDS011;4998;51.024;13.828;2022-08-19T10:11:16;14.40;;;9.20;;
9918;SDS011;4998;51.024;13.828;2022-08-19T10:13:44;10.93;;;9.20;;
9918;SDS011;4998;51.024;13.828;2022-08-19T10:16:15;10.70;;;8.70;;
9918;SDS011;4998;51.024;13.828;2022-08-19T10:18:44;9.43;;;8.60;;
9918;SDS011;4998;51.024;13.828;2022-08-19T10:21:12;9.10;;;8.30;;
9918;SDS011;4998;51.024;13.828;2022-08-19T10:23:40;9.03;;;8.23;;
9918;SDS011;4998;51.024;13.828;2022-08-19T10:26:10;8.70;;;7.90;;
9918;SDS011;4998;51.024;13.828;2022-08-19T10:28:38;8.20;;;7.40;;
9918;SDS011;4998;51.024;13.828;2022-08-19T10:31:05;7.97;;;7.17;;
9918;SDS011;4998;51.024;13.828;2022-08-19T10:33:35;8.27;;;7.50;;
9918;SDS011;4998;51.024;13.828;2022-08-19T10:36:03;8.33;;;7.53;;
9918;SDS011;4998;51.024;13.828;2022-08-19T10:38:32;8.67;;;7.97;;
9918;SDS011;4998;51.024;13.828;2022-08-19T10:41:05;9.07;;;7.60;;
9918;SDS011;4998;51.024;13.828;2022-08-19T10:43:33;7.50;;;6.90;;
9918;SDS011;4998;51.024;13.828;2022-08-19T10:46:03;7.50;;;6.80;;
9918;SDS011;4998;51.024;13.828;2022-08-19T10:48:30;6.97;;;6.30;;
9918;SDS011;4998;51.024;13.828;2022-08-19T10:50:59;6.87;;;6.27;;
9918;SDS011;4998;51.024;13.828;2022-08-19T10:53:44;7.00;;;6.40;;
9918;SDS011;4998;51.024;13.828;2022-08-19T10:56:11;7.10;;;6.40;;
9918;SDS011;4998;51.024;13.828;2022-08-19T10:58:55;6.30;;;5.80;;
9918;SDS011;4998;51.024;13.828;2022-08-19T11:01:23;5.90;;;5.50;;
9918;SDS011;4998;51.024;13.828;2022-08-19T11:03:50;6.17;;;5.67;;
9918;SDS011;4998;51.024;13.828;2022-08-19T11:06:18;6.97;;;6.27;;
9918;SDS011;4998;51.024;13.828;2022-08-19T11:08:45;6.73;;;6.23;;
9918;SDS011;4998;51.024;13.828;2022-08-19T11:11:12;6.70;;;6.20;;
9918;SDS011;4998;51.024;13.828;2022-08-19T11:13:40;6.30;;;5.80;;
9918;SDS011;4998;51.024;13.828;2022-08-19T11:16:08;5.90;;;5.40;;
9918;SDS011;4998;51.024;13.828;2022-08-19T11:18:39;5.50;;;5.10;;
9918;SDS011;4998;51.024;13.828;2022-08-19T11:21:09;5.30;;;4.90;;
9918;SDS011;4998;51.024;13.828;2022-08-19T11:23:39;5.47;;;5.07;;
9918;SDS011;4998;51.024;13.828;2022-08-19T11:26:06;4.77;;;4.40;;
9918;SDS011;4998;51.024;13.828;2022-08-19T11:28:33;6.73;;;4.90;;
9918;SDS011;4998;51.024;13.828;2022-08-19T11:31:00;5.70;;;4.90;;
9918;SDS011;4998;51.024;13.828;2022-08-19T11:33:28;5.63;;;5.23;;
9918;SDS011;4998;51.024;13.828;2022-08-19T11:35:56;5.27;;;4.87;;
9918;SDS011;4998;51.024;13.828;2022-08-19T11:38:24;5.20;;;4.80;;
9918;SDS011;4998;51.024;13.828;2022-08-19T11:40:56;5.27;;;4.77;;
9918;SDS011;4998;51.024;13.828;2022-08-19T11:43:23;5.40;;;5.00;;
9918;SDS011;4998;51.024;13.828;2022-08-19T11:45:51;5.50;;;5.10;;
9918;SDS011;4998;51.024;13.828;2022-08-19T11:48:19;7.43;;;5.80;;
9918;SDS011;4998;51.024;13.828;2022-08-19T11:50:47;6.93;;;6.07;;
9918;SDS011;4998;51.024;13.828;2022-08-19T11:53:15;6.70;;;6.20;;
9918;SDS011;4998;51.024;13.828;2022-08-19T11:55:43;8.30;;;5.90;;
9918;SDS011;4998;51.024;13.828;2022-08-19T11:58:12;6.37;;;5.80;;
9918;SDS011;4998;51.024;13.828;2022-08-19T12:00:39;7.20;;;6.60;;
9918;SDS011;4998;51.024;13.828;2022-08-19T12:03:07;8.13;;;7.33;;
9918;SDS011;4998;51.024;13.828;2022-08-19T12:05:36;7.13;;;6.53;;
9918;SDS011;4998;51.024;13.828;2022-08-19T12:08:03;6.83;;;6.13;;
9918;SDS011;4998;51.024;13.828;2022-08-19T12:10:30;7.30;;;6.60;;
9918;SDS011;4998;51.024;13.828;2022-08-19T12:12:57;7.50;;;6.80;;
9918;SDS011;4998;51.024;13.828;2022-08-19T12:15:26;7.33;;;6.73;;
9918;SDS011;4998;51.024;13.828;2022-08-19T12:17:54;7.30;;;6.70;;
9918;SDS011;4998;51.024;13.828;2022-08-19T12:20:21;7.50;;;6.80;;
9918;SDS011;4998;51.024;13.828;2022-08-19T12:22:49;7.87;;;7.10;;
9918;SDS011;4998;51.024;13.828;2022-08-19T12:25:16;7.73;;;6.93;;
9918;SDS011;4998;51.024;13.828;2022-08-19T12:27:44;8.40;;;7.70;;
9918;SDS011;4998;51.024;13.828;2022-08-19T12:30:12;8.50;;;7.80;;
9918;SDS011;4998;51.024;13.828;2022-08-19T12:32:40;8.70;;;7.90;;
9918;SDS011;4998;51.024;13.828;2022-08-19T12:35:08;9.37;;;8.57;;
9918;SDS011;4998;51.024;13.828;2022-08-19T12:37:36;9.77;;;8.77;;
9918;SDS011;4998;51.024;13.828;2022-08-19T12:40:04;10.27;;;9.30;;
9918;SDS011;4998;51.024;13.828;2022-08-19T12:42:31;10.27;;;9.27;;
9918;SDS011;4998;51.024;13.828;2022-08-19T12:44:58;10.50;;;9.60;;
9918;SDS011;4998;51.024;13.828;2022-08-19T12:47:25;10.60;;;9.63;;
9918;SDS011;4998;51.024;13.828;2022-08-19T12:49:53;11.20;;;10.00;;
9918;SDS011;4998;51.024;13.828;2022-08-19T12:52:22;12.40;;;11.17;;
9918;SDS011;4998;51.024;13.828;2022-08-19T12:54:51;13.17;;;10.73;;
9918;SDS011;4998;51.024;13.828;2022-08-19T12:57:19;12.40;;;11.07;;
9918;SDS011;4998;51.024;13.828;2022-08-19T12:59:47;12.70;;;11.40;;
9918;SDS011;4998;51.024;13.828;2022-08-19T13:02:18;12.90;;;11.60;;
9918;SDS011;4998;51.024;13.828;2022-08-19T13:04:45;13.73;;;12.40;;
9918;SDS011;4998;51.024;13.828;2022-08-19T13:07:13;14.37;;;12.87;;
9918;SDS011;4998;51.024;13.828;2022-08-19T13:09:40;14.57;;;13.00;;
9918;SDS011;4998;51.024;13.828;2022-08-19T13:12:07;14.33;;;12.83;;
9918;SDS011;4998;51.024;13.828;2022-08-19T13:14:38;13.03;;;11.30;;
9918;SDS011;4998;51.024;13.828;2022-08-19T13:17:05;14.00;;;12.50;;
9918;SDS011;4998;51.024;13.828;2022-08-19T13:19:35;12.70;;;11.50;;
9918;SDS011;4998;51.024;13.828;2022-08-19T13:22:02;12.60;;;11.40;;
9918;SDS011;4998;51.024;13.828;2022-08-19T13:24:31;13.40;;;11.97;;
9918;SDS011;4998;51.024;13.828;2022-08-19T13:26:58;13.27;;;11.90;;
9918;SDS011;4998;51.024;13.828;2022-08-19T13:29:25;12.20;;;11.00;;
9918;SDS011;4998;51.024;13.828;2022-08-19T13:32:09;12.50;;;11.20;;
9918;SDS011;4998;51.024;13.828;2022-08-19T13:34:54;12.07;;;10.63;;
9918;SDS011;4998;51.024;13.828;2022-08-19T13:37:21;11.50;;;10.37;;
9918;SDS011;4998;51.024;13.828;2022-08-19T13:40:08;12.43;;;11.13;;
9918;SDS011;4998;51.024;13.828;2022-08-19T13:42:37;13.73;;;12.20;;
9918;SDS011;4998;51.024;13.828;2022-08-19T13:45:05;15.63;;;12.17;;
9918;SDS011;4998;51.024;13.828;2022-08-19T13:47:33;15.00;;;11.80;;
9918;SDS011;4998;51.024;13.828;2022-08-19T13:50:00;13.57;;;12.17;;
9918;SDS011;4998;51.024;13.828;2022-08-19T13:52:29;13.50;;;12.20;;
9918;SDS011;4998;51.024;13.828;2022-08-19T13:54:56;13.70;;;12.30;;
9918;SDS011;4998;51.024;13.828;2022-08-19T13:57:24;14.10;;;12.67;;
9918;SDS011;4998;51.024;13.828;2022-08-19T13:59:51;13.20;;;11.93;;
9918;SDS011;4998;51.024;13.828;2022-08-19T14:02:18;15.53;;;13.97;;
9918;SDS011;4998;51.024;13.828;2022-08-19T14:04:45;15.40;;;13.30;;
9918;SDS011;4998;51.024;13.828;2022-08-19T14:07:12;13.30;;;11.93;;
9918;SDS011;4998;51.024;13.828;2022-08-19T14:09:39;12.00;;;10.83;;
9918;SDS011;4998;51.024;13.828;2022-08-19T14:12:06;20.03;;;12.73;;
9918;SDS011;4998;51.024;13.828;2022-08-19T14:14:37;13.50;;;12.13;;
9918;SDS011;4998;51.024;13.828;2022-08-19T14:17:05;13.47;;;12.17;;
9918;SDS011;4998;51.024;13.828;2022-08-19T14:19:32;14.83;;;13.33;;
9918;SDS011;4998;51.024;13.828;2022-08-19T14:21:59;15.93;;;14.27;;
9918;SDS011;4998;51.024;13.828;2022-08-19T14:24:26;15.10;;;13.47;;
9918;SDS011;4998;51.024;13.828;2022-08-19T14:26:53;17.20;;;14.13;;
9918;SDS011;4998;51.024;13.828;2022-08-19T14:29:20;16.13;;;13.80;;
9918;SDS011;4998;51.024;13.828;2022-08-19T14:31:48;16.47;;;14.43;;
9918;SDS011;4998;51.024;13.828;2022-08-19T14:34:15;16.93;;;15.17;;
9918;SDS011;4998;51.024;13.828;2022-08-19T14:36:42;20.37;;;14.77;;
9918;SDS011;4998;51.024;13.828;2022-08-19T14:39:10;15.90;;;13.40;;
9918;SDS011;4998;51.024;13.828;2022-08-19T14:41:39;16.57;;;14.70;;
9918;SDS011;4998;51.024;13.828;2022-08-19T14:44:06;15.90;;;14.03;;
9918;SDS011;4998;51.024;13.828;2022-08-19T14:46:37;16.20;;;14.57;;
9918;SDS011;4998;51.024;13.828;2022-08-19T14:49:05;17.00;;;14.13;;
9918;SDS011;4998;51.024;13.828;2022-08-19T14:51:33;16.30;;;14.60;;
9918;SDS011;4998;51.024;13.828;2022-08-19T14:54:00;17.20;;;15.40;;
9918;SDS011;4998;51.024;13.828;2022-08-19T14:56:27;18.87;;;15.97;;
9918;SDS011;4998;51.024;13.828;2022-08-19T14:58:56;17.27;;;15.43;;